Latest Weather Observations for Perth Airport

IDW60901

Issued at 8:21 pm WST Saturday 28 March 2015 (issued every 10 minutes, with the page automatically refreshed every 10 minutes)

About weather observations | Map of Perth area stations | Latest observations for Perth area | Other Formats
Station Details ID: 009021 Name: PERTH AIRPORT Lat: -31.93 Lon: 115.98 Height: 15.4 m
Data from the previous 72 hours. | See also: Recent months at Perth Airport
Date/Time
WST
Tmp

°C
App
Tmp
°C
Dew
Point
°C
Rel
Hum
%
Delta-T

°C
Wind Press
QNH
hPa
Press
MSL
hPa
Rain
since
9 am
mm
Dir
 
Spd
km/h
Gust
km/h
Spd
kts
Gust
kts
28/08:00pm 20.2 18.7 14.3 69 3.4 SSW 15 19 8 10 1020.0 - 0.0
28/07:30pm 20.6 18.5 13.6 64 4.0 SSW 17 24 9 13 1019.6 - 0.0
28/07:00pm 21.0 18.6 12.5 58 4.8 SSW 17 20 9 11 1019.4 - 0.0
28/06:30pm 21.3 17.7 12.0 55 5.2 SSW 22 28 12 15 1019.0 - 0.0
28/05:30pm 23.0 19.0 11.8 49 6.3 SW 24 30 13 16 1018.5 - 0.0
28/05:00pm 23.9 19.4 11.4 45 7.0 SW 26 35 14 19 1018.5 - 0.0
28/04:30pm 24.5 20.1 11.8 45 7.2 SW 26 33 14 18 1018.3 - 0.0
28/04:00pm 25.0 21.1 12.0 44 7.4 WSW 24 32 13 17 1018.2 - 0.0
28/03:30pm 25.3 21.4 12.2 44 7.5 WSW 24 32 13 17 1018.2 - 0.0
28/03:00pm 26.2 22.6 13.2 44 7.6 WSW 24 35 13 19 1018.2 1018.1 0.0
28/02:30pm 25.9 22.3 13.0 44 7.5 WSW 24 32 13 17 1018.4 - 0.0
28/02:00pm 25.7 22.3 13.6 47 7.1 W 24 37 13 20 1018.7 - 0.0
28/01:30pm 26.1 22.6 13.5 45 7.4 WSW 24 30 13 16 1018.9 - 0.0
28/01:00pm 26.5 23.2 12.7 42 8.0 WSW 22 32 12 17 1019.1 - 0.0
28/12:30pm 26.5 24.4 9.9 35 9.2 SW 11 17 6 9 1019.5 - 0.0
28/12:00pm 25.5 23.7 10.9 40 8.2 WSW 11 19 6 10 1019.9 1019.8 0.0
28/11:30am 25.0 24.4 11.8 43 7.5 S 6 9 3 5 1020.4 - 0.0
28/11:00am 24.3 23.3 12.4 47 6.8 SW 9 15 5 8 1020.7 - 0.0
28/10:30am 22.9 21.9 12.3 51 6.0 S 9 15 5 8 1021.1 - 0.0
28/09:30am 21.5 19.7 13.3 59 4.7 SSW 15 24 8 13 1021.3 - 0.0
28/08:00am 16.7 16.3 13.1 79 2.0 S 7 9 4 5 1021.2 - 0.0
28/07:30am 14.5 14.6 12.7 89 1.0 SSW 4 7 2 4 1021.0 - 0.0
28/07:00am 11.6 11.5 10.8 95 0.4 SE 2 9 1 5 1020.7 - 0.0
28/06:30am 11.1 11.3 10.5 96 0.3 CALM 0 0 0 0 1020.4 - 0.0
28/06:00am 10.9 10.6 10.1 95 0.4 E 2 6 1 3 1020.1 1020.0 0.0
28/05:30am 11.3 11.4 10.3 94 0.5 CALM 0 7 0 4 1019.7 - 0.0
28/05:00am 11.7 12.0 10.9 95 0.4 CALM 0 0 0 0 1019.5 - 0.0
28/04:30am 12.1 12.1 11.3 95 0.4 ENE 2 7 1 4 1019.2 - 0.0
28/04:00am 12.1 11.1 11.1 94 0.5 NE 7 9 4 5 1019.0 - 0.0
28/03:30am 12.6 13.1 11.5 93 0.6 CALM 0 6 0 3 1019.0 - 0.0
28/03:00am 13.0 12.1 11.5 91 0.8 E 7 9 4 5 1018.8 1018.7 0.0
28/02:30am 13.1 12.2 11.4 89 0.9 ENE 7 9 4 5 1018.9 - 0.0
28/02:00am 13.4 12.5 11.5 88 1.0 ENE 7 9 4 5 1019.1 - 0.0
28/01:30am 13.7 14.3 11.8 88 1.0 CALM 0 0 0 0 1019.2 - 0.0
28/01:00am 14.3 14.9 11.9 85 1.3 CALM 0 0 0 0 1019.2 - 0.0
28/12:30am 14.6 13.6 12.2 85 1.3 N 9 9 5 5 1019.3 - 0.0
28/12:00am 14.7 14.3 13.1 90 0.9 N 7 9 4 5 1019.2 1019.1 0.0
 
Date/Time
WST
Tmp

°C
App
Tmp
°C
Dew
Point
°C
Rel
Hum
%
Delta-T

°C
Wind Press
QNH
hPa
Press
MSL
hPa
Rain
since
9 am
mm
Dir
 
Spd
km/h
Gust
km/h
Spd
kts
Gust
kts
27/11:30pm 15.2 15.3 13.8 91 0.8 NE 6 9 3 5 1019.3 - 0.0
27/11:00pm 16.5 16.2 14.4 87 1.2 SE 9 13 5 7 1019.6 - 0.0
27/10:30pm 18.2 16.8 14.6 79 2.1 S 15 19 8 10 1019.7 - 0.0
27/10:00pm 19.5 17.3 14.5 73 2.9 S 19 22 10 12 1019.8 - 0.0
27/09:30pm 20.1 18.4 14.6 70 3.2 S 17 22 9 12 1020.0 - 0.0
27/09:00pm 20.4 18.4 14.9 70 3.2 SSW 19 24 10 13 1019.9 1019.8 0.0
27/08:30pm 20.6 18.9 14.8 69 3.4 S 17 24 9 13 1019.5 - 0.0
27/08:00pm 21.1 18.6 14.2 64 4.0 S 20 26 11 14 1019.2 - 0.0
27/07:30pm 21.8 19.4 13.7 60 4.7 S 19 28 10 15 1018.9 - 0.0
27/07:00pm 22.5 19.8 13.5 56 5.2 SSW 20 30 11 16 1018.3 - 0.0
27/06:30pm 23.1 20.6 13.6 55 5.5 SW 19 26 10 14 1017.9 - 0.0
27/06:00pm 23.9 20.1 13.6 52 6.0 SW 26 32 14 17 1017.6 1017.5 0.0
27/05:30pm 24.8 20.5 13.3 48 6.7 SW 28 33 15 18 1017.5 - 0.0
27/05:00pm 25.6 20.9 13.3 46 7.2 SSW 30 37 16 20 1017.4 - 0.0
27/04:30pm 26.3 22.5 12.5 42 8.0 SW 24 32 13 17 1017.1 - 0.0
27/04:00pm 27.3 22.6 12.0 38 8.8 SW 28 32 15 17 1016.9 - 0.0
27/03:30pm 27.0 23.7 11.6 38 8.8 SSW 20 30 11 16 1017.1 - 0.0
27/03:00pm 27.0 23.8 11.1 37 9.0 S 19 26 10 14 1017.3 1017.2 0.0
27/02:30pm 27.0 24.7 11.8 38 8.7 S 15 22 8 12 1017.4 - 0.0
27/02:00pm 26.2 23.6 12.1 41 8.1 SW 17 28 9 15 1017.6 - 0.0
27/01:30pm 26.2 24.4 12.1 41 8.1 SSW 13 20 7 11 1018.0 - 0.0
27/01:00pm 25.9 24.2 12.3 42 7.8 SW 13 24 7 13 1018.3 - 0.0
27/12:30pm 25.1 24.7 12.4 45 7.3 SE 6 15 3 8 1018.8 - 0.0
27/12:00pm 24.8 23.4 12.2 45 7.2 SSW 11 17 6 9 1019.3 1019.2 0.0
27/11:30am 24.4 23.9 12.8 48 6.7 SSW 7 17 4 9 1019.6 - 0.0
27/11:00am 24.7 24.1 13.6 50 6.5 SSE 9 17 5 9 1019.9 - 0.0
27/10:30am 23.2 22.5 13.3 53 5.7 E 9 15 5 8 1020.2 - 0.0
27/10:00am 22.5 21.1 13.5 56 5.2 E 13 22 7 12 1020.4 - 0.0
27/09:30am 22.2 20.7 14.1 60 4.7 E 15 32 8 17 1020.6 - 0.0
27/09:00am 20.9 18.0 14.0 64 4.0 E 22 28 12 15 1020.4 1020.3 3.4
27/08:30am 20.0 16.7 13.9 68 3.5 ENE 24 30 13 16 1020.3 - 3.4
27/08:00am 19.1 17.0 13.7 71 3.1 E 17 26 9 14 1020.4 - 3.4
27/07:30am 18.1 15.9 13.3 73 2.7 ENE 17 26 9 14 1020.5 - 3.4
27/07:00am 17.1 15.3 13.4 79 2.1 NE 15 33 8 18 1020.4 - 3.4
27/06:30am 17.1 15.3 13.4 79 2.1 ENE 15 24 8 13 1020.2 - 3.4
27/06:00am 17.3 15.1 13.2 77 2.3 NE 17 26 9 14 1020.2 1020.1 3.4
27/05:30am 17.3 14.7 13.2 77 2.3 ENE 19 24 10 13 1019.9 - 3.4
27/05:00am 17.5 15.3 13.2 76 2.4 ENE 17 26 9 14 1019.6 - 3.4
27/04:30am 17.7 15.1 13.2 75 2.5 NE 19 26 10 14 1019.5 - 3.4
27/04:00am 17.5 15.5 13.8 79 2.1 ENE 17 19 9 10 1019.7 - 3.4
27/03:30am 17.6 16.3 13.7 78 2.2 NE 13 17 7 9 1020.1 - 3.4
27/03:00am 17.4 15.8 13.9 80 2.0 ENE 15 19 8 10 1020.0 1019.9 3.4
27/02:30am 17.5 16.2 13.8 79 2.1 NE 13 17 7 9 1020.2 - 3.4
27/02:00am 17.5 17.5 13.6 78 2.2 SE 6 9 3 5 1020.5 - 3.4
27/01:30am 17.4 14.9 13.5 78 2.2 E 19 30 10 16 1020.6 - 3.4
27/01:00am 17.8 16.1 13.6 76 2.4 E 15 19 8 10 1021.1 - 3.4
27/12:30am 18.3 15.5 13.1 71 2.9 E 20 28 11 15 1021.6 - 3.0
27/12:00am 17.2 16.2 14.6 85 1.5 NE 13 19 7 10 1021.6 1021.5 3.0
 
Date/Time
WST
Tmp

°C
App
Tmp
°C
Dew
Point
°C
Rel
Hum
%
Delta-T

°C
Wind Press
QNH
hPa
Press
MSL
hPa
Rain
since
9 am
mm
Dir
 
Spd
km/h
Gust
km/h
Spd
kts
Gust
kts
26/11:30pm 17.8 17.0 14.1 79 2.1 ESE 11 15 6 8 1021.5 - 3.0
26/11:00pm 17.5 17.6 15.6 89 1.1 E 9 15 5 8 1021.5 - 3.0
26/10:30pm 17.8 17.7 15.0 84 1.6 E 9 13 5 7 1021.7 - 3.0
26/10:00pm 18.2 16.5 15.8 86 1.4 SE 19 26 10 14 1022.2 - 3.0
26/09:30pm 18.6 17.5 17.4 93 0.7 SE 19 24 10 13 1022.5 - 2.8
26/09:00pm 18.7 19.2 17.4 92 0.8 WNW 11 15 6 8 1022.8 1022.7 1.8
26/08:30pm 18.7 18.9 17.7 94 0.6 WNW 13 17 7 9 1022.3 - 1.4
26/08:00pm 19.3 20.4 17.0 86 1.4 ESE 7 17 4 9 1021.7 - 0.8
26/07:30pm 19.5 19.9 16.3 82 1.9 N 9 22 5 12 1021.4 - 0.6
26/07:00pm 20.1 19.2 15.9 77 2.5 N 15 19 8 10 1020.8 - 0.4
26/06:30pm 23.6 19.4 11.2 45 6.9 N 24 32 13 17 1020.5 - 0.0
26/06:00pm 24.0 24.0 11.1 44 7.2 NNE 2 9 1 5 1019.9 1019.8 0.0
26/05:30pm 24.9 22.6 10.5 40 8.0 NE 13 17 7 9 1019.8 - 0.0
26/05:00pm 25.8 20.8 9.6 36 8.9 N 26 35 14 19 1019.9 - 0.0
26/04:30pm 28.3 23.4 4.9 22 12.0 ENE 20 28 11 15 1019.4 - 0.0
26/04:00pm 28.8 23.4 4.6 21 12.4 NE 22 30 12 16 1019.3 - 0.0
26/03:30pm 29.4 23.7 5.1 21 12.6 E 24 30 13 16 1019.2 - 0.0
26/03:00pm 29.3 23.0 5.5 22 12.4 ENE 28 48 15 26 1019.0 1018.9 0.0
26/02:52pm 29.4 22.8 4.4 20 12.8 ENE 28 48 15 26 1019.2 - 0.0
26/02:30pm 29.3 23.3 5.2 21 12.5 E 26 37 14 20 1019.4 - 0.0
26/02:00pm 29.7 23.6 5.0 21 12.8 ENE 26 37 14 20 1019.8 - 0.0
26/01:30pm 29.1 23.5 5.5 22 12.3 ENE 24 35 13 19 1020.4 - 0.0
26/01:00pm 28.6 23.0 5.2 22 12.1 ENE 24 37 13 20 1020.9 - 0.0
26/12:30pm 28.3 22.0 5.9 24 11.7 ENE 28 39 15 21 1021.3 - 0.0
26/12:00pm 28.4 21.5 6.6 25 11.5 ENE 32 41 17 22 1021.7 1021.6 0.0
26/11:30am 27.1 20.2 6.4 26 10.8 ENE 32 41 17 22 1022.2 - 0.0
26/11:00am 26.8 19.8 6.8 28 10.5 ENE 33 41 18 22 1022.5 - 0.0
26/10:30am 25.3 18.2 6.3 29 9.8 ENE 33 46 18 25 1023.0 - 0.0
26/10:00am 24.0 17.0 6.2 31 9.1 NE 32 46 17 25 1023.3 - 0.0
26/09:30am 23.3 16.0 7.3 35 8.3 ENE 35 54 19 29 1023.4 - 0.0
26/09:23am 23.2 16.4 7.1 35 8.3 ENE 32 54 17 29 1023.3 - 0.0
26/09:00am 21.6 15.0 8.7 43 6.8 ENE 33 46 18 25 1023.5 1023.4 0.0
26/08:30am 19.1 11.9 9.2 52 5.2 ENE 37 50 20 27 1023.8 - 0.0
26/08:00am 17.6 9.8 9.6 59 4.2 ENE 41 52 22 28 1023.6 - 0.0
26/07:32am 16.5 8.7 9.6 63 3.6 ENE 41 59 22 32 1023.4 - 0.0
26/07:30am 16.4 8.2 9.7 64 3.5 E 43 59 23 32 1023.4 - 0.0
26/07:01am 15.7 6.2 9.7 67 3.1 E 50 70 27 38 1023.1 - 0.0
26/07:00am 15.7 6.2 9.7 67 3.1 E 50 63 27 34 1023.1 - 0.0
26/06:30am 15.3 7.2 9.9 70 2.8 E 43 59 23 32 1023.1 - 0.0
26/06:21am 15.2 7.5 10.0 71 2.7 ENE 41 59 22 32 1023.1 - 0.0
26/06:00am 15.4 7.3 10.0 70 2.8 E 43 57 23 31 1022.9 1022.8 0.0
26/05:35am 15.6 7.9 10.0 69 2.9 E 41 61 22 33 1022.9 - 0.0
26/05:32am 15.6 8.6 10.0 69 2.9 ENE 37 59 20 32 1022.7 - 0.0
26/05:30am 15.6 9.0 10.0 69 2.9 ENE 35 48 19 26 1022.7 - 0.0
26/05:00am 16.0 8.7 10.1 68 3.1 E 39 54 21 29 1022.6 - 0.0
26/04:30am 16.2 8.9 10.3 68 3.1 E 39 59 21 32 1022.4 - 0.0
26/04:21am 16.2 8.5 10.3 68 3.1 E 41 59 22 32 1022.4 - 0.0
26/04:00am 16.5 8.8 10.2 66 3.3 E 41 56 22 30 1022.3 - 0.0
26/03:30am 16.8 8.8 10.4 66 3.4 E 43 61 23 33 1022.2 - 0.0
26/03:13am 16.9 9.7 10.5 66 3.4 E 39 57 21 31 1022.2 - 0.0
26/03:00am 17.1 9.5 10.5 65 3.5 E 41 56 22 30 1022.1 1022.0 0.0
26/02:38am 17.2 10.8 10.6 65 3.5 E 35 54 19 29 1022.3 - 0.0
26/02:30am 17.4 11.3 10.4 63 3.7 E 33 48 18 26 1022.4 - 0.0
26/02:13am 17.4 10.2 10.7 65 3.6 E 39 57 21 31 1022.5 - 0.0
26/02:00am 17.6 10.4 10.7 64 3.7 E 39 56 21 30 1022.6 - 0.0
26/01:30am 17.9 10.8 10.8 63 3.8 E 39 57 21 31 1022.5 - 0.0
26/01:00am 18.1 11.0 10.8 62 3.9 E 39 59 21 32 1022.6 - 0.0
26/12:35am 18.5 11.4 10.9 61 4.1 E 39 57 21 31 1022.7 - 0.0
26/12:30am 18.5 12.2 10.9 61 4.1 E 35 50 19 27 1022.8 - 0.0
26/12:02am 19.1 12.4 11.0 59 4.4 E 37 56 20 30 1022.9 - 0.0
26/12:00am 19.1 12.8 11.0 59 4.4 E 35 50 19 27 1022.9 1022.8 0.0
 
Date/Time
WST
Tmp

°C
App
Tmp
°C
Dew
Point
°C
Rel
Hum
%
Delta-T

°C
Wind Press
QNH
hPa
Press
MSL
hPa
Rain
since
9 am
mm
Dir
 
Spd
km/h
Gust
km/h
Spd
kts
Gust
kts
25/11:30pm 20.0 14.2 10.8 55 5.0 E 32 48 17 26 1022.7 - 0.0
25/11:00pm 20.6 14.6 10.0 50 5.7 E 32 50 17 27 1022.8 - 0.0
25/10:30pm 21.5 15.7 7.8 41 7.1 E 28 37 15 20 1022.8 - 0.0
25/10:00pm 22.1 16.3 4.2 31 8.7 E 24 35 13 19 1022.6 - 0.0
25/09:30pm 22.2 17.4 4.4 31 8.7 ESE 19 26 10 14 1022.5 - 0.0
25/09:00pm 22.2 17.8 4.7 32 8.6 ESE 17 22 9 12 1022.5 1022.4 0.0
25/08:30pm 21.8 17.5 5.2 34 8.2 SE 17 22 9 12 1022.3 - 0.0

Latest Capital City Observations: Canberra | Sydney | Melbourne | Brisbane | Adelaide | Perth | Hobart | Darwin

Other Formats:

Comma delimited format used in spreadsheet applications
http://www.bom.gov.au/fwo/IDW60901/IDW60901.94610.axf

JavaScript Object Notation format (JSON) in row-major order
http://www.bom.gov.au/fwo/IDW60901/IDW60901.94610.json